Time;durP1;ratioP1;P1;durP2;ratioP2;P2;SDS_P1;SDS_P2;PMS_P1;PMS_P2;Temp;Humidity;BMP_temperature;BMP_pressure;BME280_temperature;BME280_humidity;BME280_pressure;Samples;Min_cycle;Max_cycle;Signal;HPM_P1;HPM_P2
2022/04/09 00:01:42;;;;;;;12.90;4.20;;;11.20;99.90;;;;;;4168632;28;20053;-90
2022/04/09 00:03:45;;;;;;;12.48;4.25;;;11.30;99.90;;;;;;4177234;28;20034;-89
2022/04/09 00:05:47;;;;;;;12.07;3.22;;;11.30;99.90;;;;;;4175469;28;20062;-90
2022/04/09 00:07:50;;;;;;;11.63;4.90;;;11.40;99.90;;;;;;4168336;28;20546;-89
2022/04/09 00:09:52;;;;;;;13.18;3.92;;;11.50;99.90;;;;;;4146598;28;20041;-89
2022/04/09 00:11:54;;;;;;;8.20;3.33;;;11.40;99.90;;;;;;4175028;28;20091;-89
2022/04/09 00:13:56;;;;;;;11.70;4.22;;;11.30;99.90;;;;;;4156782;28;20042;-89
2022/04/09 00:15:58;;;;;;;14.38;4.47;;;11.20;99.90;;;;;;4172161;28;20037;-89
2022/04/09 00:18:00;;;;;;;16.00;3.65;;;11.30;99.90;;;;;;4148181;28;20461;-89
2022/04/09 00:20:02;;;;;;;12.43;3.25;;;11.30;99.90;;;;;;4156999;28;20489;-89
2022/04/09 00:22:04;;;;;;;10.43;4.35;;;11.30;99.90;;;;;;4146835;28;20054;-89
2022/04/09 00:24:07;;;;;;;10.05;3.65;;;11.30;99.90;;;;;;4181997;28;20040;-89
2022/04/09 00:26:09;;;;;;;12.02;3.55;;;11.30;99.90;;;;;;4187288;28;20076;-89
2022/04/09 00:28:11;;;;;;;10.02;4.13;;;11.20;99.90;;;;;;4176859;28;20037;-88
2022/04/09 00:30:13;;;;;;;15.40;3.78;;;11.30;99.90;;;;;;4174527;28;20111;-89
2022/04/09 00:32:15;;;;;;;13.82;3.78;;;11.30;99.90;;;;;;4176944;28;20588;-89
2022/04/09 00:34:17;;;;;;;13.60;4.00;;;11.30;99.90;;;;;;4176028;28;20068;-89
2022/04/09 00:36:19;;;;;;;12.23;4.30;;;11.40;99.90;;;;;;4166559;28;20067;-89
2022/04/09 00:38:22;;;;;;;11.02;4.47;;;11.30;99.90;;;;;;4187994;28;20479;-89
2022/04/09 00:40:25;;;;;;;;;;;11.30;99.90;;;;;;4179976;28;20057;-88
2022/04/09 00:42:28;;;;;;;10.85;4.72;;;11.40;99.90;;;;;;4161561;28;19958;-88
2022/04/09 00:44:31;;;;;;;10.10;3.53;;;11.40;99.90;;;;;;4195768;28;20055;-90
2022/04/09 00:46:33;;;;;;;14.55;3.72;;;11.50;99.90;;;;;;4208003;28;20071;-89
2022/04/09 00:48:36;;;;;;;9.95;3.33;;;11.60;99.90;;;;;;4192244;28;20032;-87
2022/04/09 00:50:38;;;;;;;13.82;3.67;;;11.60;99.90;;;;;;4187637;28;20040;-89
2022/04/09 00:52:49;;;;;;;10.00;3.83;;;11.60;99.90;;;;;;4186387;28;20089;-89
2022/04/09 00:54:54;;;;;;;11.35;3.83;;;11.60;99.90;;;;;;4182912;28;20037;-89
2022/04/09 00:57:05;;;;;;;11.27;4.15;;;11.60;99.90;;;;;;4181970;28;20029;-90
2022/04/09 00:59:11;;;;;;;9.55;3.10;;;11.60;99.90;;;;;;4179292;28;20033;-88
2022/04/09 01:01:14;;;;;;;8.70;3.00;;;11.70;99.90;;;;;;4188627;28;20816;-89
2022/04/09 01:03:18;;;;;;;9.93;2.38;;;11.70;99.90;;;;;;4179774;28;20032;-89
2022/04/09 01:05:20;;;;;;;9.40;3.55;;;11.60;99.90;;;;;;4179141;28;20655;-90
2022/04/09 01:07:23;;;;;;;16.08;4.88;;;11.60;99.90;;;;;;4179251;28;20049;-88
2022/04/09 01:09:26;;;;;;;11.85;2.60;;;11.60;99.90;;;;;;4186389;28;20072;-88
2022/04/09 01:11:29;;;;;;;9.73;2.80;;;11.60;99.90;;;;;;4188953;28;20064;-88
2022/04/09 01:13:32;;;;;;;13.20;3.63;;;11.60;99.90;;;;;;4168203;28;20089;-89
2022/04/09 01:15:34;;;;;;;12.57;4.63;;;11.70;99.90;;;;;;4184904;28;20162;-89
2022/04/09 01:17:38;;;;;;;15.32;4.13;;;11.60;99.90;;;;;;4192990;28;20136;-89
2022/04/09 01:19:40;;;;;;;8.48;2.90;;;11.60;99.90;;;;;;4194561;28;20070;-89
2022/04/09 01:21:43;;;;;;;9.00;3.33;;;11.70;99.90;;;;;;4176666;28;20045;-90
2022/04/09 01:23:45;;;;;;;12.20;3.40;;;11.70;99.90;;;;;;4174987;28;20064;-89
2022/04/09 01:25:47;;;;;;;12.95;3.72;;;11.70;99.90;;;;;;4182671;28;20040;-90
2022/04/09 01:27:50;;;;;;;10.85;2.90;;;11.70;99.90;;;;;;4177129;28;20174;-90
2022/04/09 01:29:52;;;;;;;8.85;2.83;;;11.70;99.90;;;;;;4176231;28;20041;-89
2022/04/09 01:31:56;;;;;;;12.60;3.85;;;11.60;99.90;;;;;;4186567;28;20094;-90
2022/04/09 01:33:58;;;;;;;12.93;3.83;;;11.60;99.90;;;;;;4189154;28;20041;-90
2022/04/09 01:36:02;;;;;;;15.40;5.13;;;11.70;99.90;;;;;;4182169;28;20511;-89
2022/04/09 01:38:04;;;;;;;12.10;3.40;;;11.70;99.90;;;;;;4179763;28;20049;-89
2022/04/09 01:40:07;;;;;;;14.63;3.72;;;11.60;99.90;;;;;;4178627;28;20131;-89
2022/04/09 01:42:10;;;;;;;16.67;4.38;;;11.60;99.90;;;;;;4177225;28;20076;-90
2022/04/09 01:44:12;;;;;;;16.55;3.78;;;11.60;99.90;;;;;;4175267;28;20481;-89
2022/04/09 01:46:15;;;;;;;19.42;4.28;;;11.60;99.90;;;;;;4193724;28;20120;-90
2022/04/09 01:48:18;;;;;;;11.73;3.53;;;11.60;99.90;;;;;;4197973;28;20044;-88
2022/04/09 01:50:21;;;;;;;11.93;4.13;;;11.60;99.90;;;;;;4200239;28;20070;-88
2022/04/09 01:52:24;;;;;;;18.65;5.32;;;11.50;99.90;;;;;;4189316;28;20078;-87
2022/04/09 01:54:26;;;;;;;13.45;4.18;;;11.50;99.90;;;;;;4175721;28;20445;-89
2022/04/09 01:56:29;;;;;;;11.05;3.45;;;11.50;99.90;;;;;;4207231;28;20067;-89
2022/04/09 01:58:31;;;;;;;12.45;3.20;;;11.50;99.90;;;;;;4194960;28;20036;-89
2022/04/09 02:00:33;;;;;;;13.45;4.00;;;11.50;99.90;;;;;;4193018;28;20469;-90
2022/04/09 02:02:35;;;;;;;14.13;3.70;;;11.50;99.90;;;;;;4191920;28;20509;-89
2022/04/09 02:04:38;;;;;;;13.35;3.72;;;11.50;99.90;;;;;;4182507;28;20124;-89
2022/04/09 02:06:42;;;;;;;9.73;3.38;;;11.50;99.90;;;;;;4172008;28;20416;-89
2022/04/09 02:08:45;;;;;;;11.95;3.55;;;11.40;99.90;;;;;;4183542;28;20079;-88
2022/04/09 02:10:47;;;;;;;12.98;3.30;;;11.40;99.90;;;;;;4198054;28;20083;-89
2022/04/09 02:12:50;;;;;;;17.38;5.38;;;11.40;99.90;;;;;;4181418;28;20048;-89
2022/04/09 02:14:53;;;;;;;12.30;3.83;;;11.50;99.90;;;;;;4177492;28;20072;-90
2022/04/09 02:17:03;;;;;;;17.63;3.80;;;11.50;99.90;;;;;;4202497;28;20035;-90
2022/04/09 02:19:14;;;;;;;11.73;4.05;;;11.40;99.90;;;;;;4164219;28;20085;-89
2022/04/09 02:21:16;;;;;;;13.52;5.35;;;11.40;99.90;;;;;;4177814;28;20624;-89
2022/04/09 02:23:18;;;;;;;15.15;3.50;;;11.40;99.90;;;;;;4162826;28;20148;-88
2022/04/09 02:25:20;;;;;;;10.13;3.33;;;11.40;99.90;;;;;;4150690;28;20557;-89
2022/04/09 02:27:22;;;;;;;8.18;3.50;;;11.50;99.90;;;;;;4162684;28;20058;-89
2022/04/09 02:29:24;;;;;;;8.70;3.50;;;11.60;99.90;;;;;;4167600;28;20045;-89
2022/04/09 02:31:26;;;;;;;12.77;4.78;;;11.60;99.90;;;;;;4164051;28;20073;-88
2022/04/09 02:33:29;;;;;;;15.60;3.72;;;11.60;99.90;;;;;;4153140;28;20070;-88
2022/04/09 02:35:31;;;;;;;13.10;3.80;;;11.60;99.90;;;;;;4132860;28;20137;-89
2022/04/09 02:37:34;;;;;;;10.15;3.08;;;11.60;99.90;;;;;;4161676;28;20160;-89
2022/04/09 02:39:36;;;;;;;11.65;5.05;;;11.60;99.90;;;;;;4171481;28;20037;-89
2022/04/09 02:41:38;;;;;;;;;;;11.50;99.90;;;;;;4163273;28;20041;-89
2022/04/09 02:43:43;;;;;;;14.32;5.43;;;11.50;99.90;;;;;;4151996;28;19964;-89
2022/04/09 02:45:47;;;;;;;10.48;4.10;;;11.60;99.90;;;;;;4157921;28;20042;-89
2022/04/09 02:47:50;;;;;;;10.90;2.78;;;11.50;99.90;;;;;;4171899;28;20061;-89
2022/04/09 02:49:53;;;;;;;14.70;3.78;;;11.60;99.90;;;;;;4180878;28;20040;-88
2022/04/09 02:51:55;;;;;;;17.77;4.45;;;11.60;99.90;;;;;;4190113;28;20524;-89
2022/04/09 02:53:57;;;;;;;8.80;2.85;;;11.50;99.90;;;;;;4178922;28;20044;-90
2022/04/09 02:56:00;;;;;;;13.05;2.90;;;11.50;99.90;;;;;;4162454;28;20041;-89
2022/04/09 02:58:02;;;;;;;9.77;2.42;;;11.50;99.90;;;;;;4162422;28;20057;-89
2022/04/09 03:00:07;;;;;;;20.25;3.90;;;11.50;99.90;;;;;;4162790;28;20100;-89
2022/04/09 03:02:09;;;;;;;7.95;3.10;;;11.50;99.90;;;;;;4162368;28;20069;-89
2022/04/09 03:04:12;;;;;;;11.63;3.78;;;11.50;99.90;;;;;;4162345;28;20049;-89
2022/04/09 03:06:15;;;;;;;17.90;5.28;;;11.60;99.90;;;;;;4162586;28;20061;-89
2022/04/09 03:08:18;;;;;;;18.83;5.18;;;11.50;99.90;;;;;;4174691;28;20041;-90
2022/04/09 03:10:20;;;;;;;12.48;4.43;;;11.40;99.90;;;;;;4167890;28;20488;-90
2022/04/09 03:12:23;;;;;;;15.70;3.58;;;11.40;99.90;;;;;;4172761;28;20037;-89
2022/04/09 03:14:27;;;;;;;15.68;3.42;;;11.40;99.90;;;;;;4168312;28;20144;-88
2022/04/09 03:16:32;;;;;;;11.20;3.30;;;11.50;99.90;;;;;;4173093;28;20611;-89
2022/04/09 03:18:35;;;;;;;10.25;3.17;;;11.40;99.90;;;;;;4210411;28;20046;-89
2022/04/09 03:20:38;;;;;;;19.90;3.25;;;11.40;99.90;;;;;;4177316;28;20029;-88
2022/04/09 03:22:43;;;;;;;;;;;11.40;99.90;;;;;;4181207;28;20037;-89
2022/04/09 03:24:45;;;;;;;18.92;3.38;;;11.40;99.90;;;;;;4188016;28;20007;-89
2022/04/09 03:26:47;;;;;;;10.73;2.83;;;11.40;99.90;;;;;;4162806;28;20037;-89
2022/04/09 03:28:49;;;;;;;13.13;3.35;;;11.40;99.90;;;;;;4162942;28;20406;-89
2022/04/09 03:30:51;;;;;;;11.15;3.33;;;11.30;99.90;;;;;;4162795;28;20448;-89
2022/04/09 03:32:54;;;;;;;13.85;3.97;;;11.40;99.90;;;;;;4161697;28;20132;-88
2022/04/09 03:34:57;;;;;;;17.52;4.35;;;11.30;99.90;;;;;;4146262;28;20104;-89
2022/04/09 03:36:59;;;;;;;13.65;3.25;;;11.30;99.90;;;;;;4165249;28;20453;-88
2022/04/09 03:39:02;;;;;;;12.85;3.30;;;11.40;99.90;;;;;;4147705;28;20034;-89
2022/04/09 03:41:04;;;;;;;9.95;3.22;;;11.40;99.90;;;;;;4161441;28;20132;-89
2022/04/09 03:43:06;;;;;;;13.68;3.38;;;11.40;99.90;;;;;;4170859;28;20037;-89
2022/04/09 03:45:09;;;;;;;21.67;4.20;;;11.30;99.90;;;;;;4181241;28;20045;-89
2022/04/09 03:47:12;;;;;;;;;;;11.30;99.90;;;;;;4158359;28;20587;-89
2022/04/09 03:49:15;;;;;;;17.52;3.72;;;11.30;99.90;;;;;;4177606;28;20016;-89
2022/04/09 03:51:17;;;;;;;19.95;3.92;;;11.30;99.90;;;;;;4193794;28;20043;-88
2022/04/09 03:53:22;;;;;;;12.80;3.95;;;11.30;99.90;;;;;;4151419;28;20037;-89
2022/04/09 03:55:26;;;;;;;17.50;4.60;;;11.30;99.90;;;;;;4148103;28;20042;-88
2022/04/09 03:57:28;;;;;;;12.50;3.47;;;11.30;99.90;;;;;;4180108;28;20131;-89
2022/04/09 03:59:30;;;;;;;16.30;3.05;;;11.30;99.90;;;;;;4167983;28;20111;-89
2022/04/09 04:01:32;;;;;;;17.98;4.18;;;11.40;99.90;;;;;;4162137;28;20132;-89
2022/04/09 04:03:35;;;;;;;11.25;3.20;;;11.30;99.90;;;;;;4179900;28;20117;-89
2022/04/09 04:05:37;;;;;;;9.57;2.92;;;11.30;99.90;;;;;;4145805;28;20038;-88
2022/04/09 04:07:46;;;;;;;9.55;2.92;;;11.30;99.90;;;;;;4163131;28;20112;-89
2022/04/09 04:09:50;;;;;;;15.77;3.33;;;11.30;99.90;;;;;;4156730;28;20481;-89
2022/04/09 04:11:52;;;;;;;12.20;3.55;;;11.40;99.90;;;;;;4173147;28;20025;-89
2022/04/09 04:13:55;;;;;;;;;;;11.30;99.90;;;;;;4146435;28;20624;-89
2022/04/09 04:15:59;;;;;;;14.52;3.17;;;11.40;99.90;;;;;;4176193;28;20543;-88
2022/04/09 04:18:02;;;;;;;8.77;3.35;;;11.40;99.90;;;;;;4151519;28;20046;-89
2022/04/09 04:20:05;;;;;;;12.00;3.30;;;11.40;99.90;;;;;;4157127;28;20037;-89
2022/04/09 04:22:10;;;;;;;4.82;2.92;;;11.40;99.90;;;;;;4167308;28;20401;-88
2022/04/09 04:24:12;;;;;;;16.60;3.95;;;11.30;99.90;;;;;;4163050;28;20048;-90
2022/04/09 04:26:14;;;;;;;17.40;3.80;;;11.30;99.90;;;;;;4181424;28;20547;-89
2022/04/09 04:28:16;;;;;;;13.85;3.55;;;11.20;99.90;;;;;;4193221;28;20117;-88
2022/04/09 04:30:18;;;;;;;8.55;3.63;;;11.20;99.90;;;;;;4194500;28;20037;-89
2022/04/09 04:32:20;;;;;;;;;;;11.20;99.90;;;;;;4178536;28;20573;-90
2022/04/09 04:34:26;;;;;;;7.72;3.67;;;11.20;99.90;;;;;;4185034;28;19924;-89
2022/04/09 04:36:29;;;;;;;15.38;2.95;;;11.30;99.90;;;;;;4190916;28;20435;-89
2022/04/09 04:38:32;;;;;;;14.65;3.80;;;11.20;99.90;;;;;;4178133;28;20135;-89
2022/04/09 04:40:34;;;;;;;13.25;3.42;;;11.20;99.90;;;;;;4186269;28;20123;-89
2022/04/09 04:42:36;;;;;;;9.02;3.05;;;11.20;99.90;;;;;;4185783;28;20128;-89
2022/04/09 04:44:38;;;;;;;9.98;3.88;;;11.20;99.90;;;;;;4201738;28;20114;-90
2022/04/09 04:46:42;;;;;;;8.02;3.55;;;11.30;99.90;;;;;;4174791;28;20091;-88
2022/04/09 04:48:44;;;;;;;14.98;4.22;;;11.20;99.90;;;;;;4162841;28;20667;-89
2022/04/09 04:50:46;;;;;;;20.50;3.45;;;11.20;99.90;;;;;;4200882;28;20177;-90
2022/04/09 04:52:50;;;;;;;11.23;4.07;;;11.20;99.90;;;;;;4209403;28;20051;-90
2022/04/09 04:54:52;;;;;;;17.30;4.78;;;11.30;99.90;;;;;;4193115;28;20036;-89
2022/04/09 04:56:54;;;;;;;7.05;2.45;;;11.30;99.90;;;;;;4177859;28;20124;-88
2022/04/09 04:58:56;;;;;;;13.20;3.67;;;11.40;99.90;;;;;;4186114;28;20041;-88
2022/04/09 05:00:58;;;;;;;12.07;4.65;;;11.40;99.90;;;;;;4195683;28;20060;-89
2022/04/09 05:03:00;;;;;;;14.40;4.03;;;11.40;99.90;;;;;;4172654;28;20057;-89
2022/04/09 05:05:03;;;;;;;10.23;4.82;;;11.30;99.90;;;;;;4203816;28;20044;-90
2022/04/09 05:07:05;;;;;;;13.88;3.30;;;11.20;99.90;;;;;;4192592;28;20457;-89
2022/04/09 05:09:07;;;;;;;13.63;3.15;;;11.20;99.90;;;;;;4178191;28;20068;-87
2022/04/09 05:11:09;;;;;;;12.73;3.00;;;11.20;99.90;;;;;;4180311;28;20068;-89
2022/04/09 05:13:11;;;;;;;13.68;3.47;;;11.30;99.90;;;;;;4192004;28;20037;-89
2022/04/09 05:15:15;;;;;;;16.00;3.88;;;11.40;99.90;;;;;;4184326;28;20090;-89
2022/04/09 05:17:17;;;;;;;10.65;3.10;;;11.40;99.90;;;;;;4186051;28;20507;-89
2022/04/09 05:19:19;;;;;;;12.70;3.45;;;11.40;99.90;;;;;;4195448;28;20080;-89
2022/04/09 05:21:21;;;;;;;11.30;3.58;;;11.40;99.90;;;;;;4192502;28;20072;-90
2022/04/09 05:23:23;;;;;;;14.15;4.25;;;11.30;99.90;;;;;;4176180;28;20685;-89
2022/04/09 05:25:26;;;;;;;15.98;4.43;;;11.30;99.90;;;;;;4185766;28;20532;-89
2022/04/09 05:27:28;;;;;;;;;;;11.30;99.90;;;;;;4177193;28;20049;-89
2022/04/09 05:29:31;;;;;;;10.27;2.72;;;11.30;99.90;;;;;;4181987;28;19967;-90
2022/04/09 05:31:33;;;;;;;8.32;2.88;;;11.30;99.90;;;;;;4191791;28;20044;-89
2022/04/09 05:33:35;;;;;;;13.70;3.05;;;11.40;99.90;;;;;;4193828;28;20040;-90
2022/04/09 05:35:37;;;;;;;12.60;3.10;;;11.30;99.90;;;;;;4184360;28;20036;-89
2022/04/09 05:37:45;;;;;;;11.48;3.65;;;11.30;99.90;;;;;;4163088;28;20104;-89
2022/04/09 05:39:47;;;;;;;11.55;3.63;;;11.30;99.90;;;;;;4177462;28;20140;-89
2022/04/09 05:41:49;;;;;;;12.20;2.90;;;11.30;99.90;;;;;;4192857;28;20159;-89
2022/04/09 05:43:52;;;;;;;18.08;4.80;;;11.30;99.90;;;;;;4197313;28;20510;-88
2022/04/09 05:45:55;;;;;;;12.57;3.83;;;11.30;99.90;;;;;;4177508;28;20040;-89
2022/04/09 05:47:57;;;;;;;17.80;4.28;;;11.30;99.90;;;;;;4181521;28;20582;-88
2022/04/09 05:49:59;;;;;;;15.00;4.57;;;11.30;99.90;;;;;;4178363;28;20462;-89
2022/04/09 05:52:02;;;;;;;14.82;3.53;;;11.30;99.90;;;;;;4177087;28;20554;-88
2022/04/09 05:54:04;;;;;;;13.68;3.92;;;11.40;99.90;;;;;;4193730;28;20124;-89
2022/04/09 05:56:07;;;;;;;20.63;5.55;;;11.40;99.90;;;;;;4187010;28;20032;-88
2022/04/09 05:58:09;;;;;;;16.08;5.13;;;11.40;99.90;;;;;;4191841;28;20464;-89
2022/04/09 06:00:13;;;;;;;15.18;3.72;;;11.40;99.90;;;;;;4193959;28;20047;-89
2022/04/09 06:02:15;;;;;;;15.93;5.32;;;11.40;99.90;;;;;;4209354;28;20121;-90
2022/04/09 06:04:20;;;;;;;8.38;3.60;;;11.50;99.90;;;;;;4180735;28;20110;-89
2022/04/09 06:06:22;;;;;;;15.15;3.97;;;11.60;99.90;;;;;;4188922;28;20049;-88
2022/04/09 06:08:24;;;;;;;;;;;11.70;99.90;;;;;;4183401;28;20051;-89
2022/04/09 06:10:27;;;;;;;13.70;3.65;;;11.60;99.90;;;;;;4198903;28;19920;-88
2022/04/09 06:12:29;;;;;;;15.02;4.55;;;11.50;99.90;;;;;;4191829;28;20550;-88
2022/04/09 06:14:31;;;;;;;13.95;4.50;;;11.40;99.90;;;;;;4192450;28;20040;-89
2022/04/09 06:16:35;;;;;;;15.63;3.47;;;11.40;99.90;;;;;;4188328;28;20048;-89
2022/04/09 06:18:38;;;;;;;12.70;4.35;;;11.40;99.90;;;;;;4189143;28;20041;-90
2022/04/09 06:20:41;;;;;;;15.05;3.53;;;11.40;99.90;;;;;;4177738;28;20041;-88
2022/04/09 06:22:43;;;;;;;15.30;5.10;;;11.40;99.90;;;;;;4193242;28;20146;-89
2022/04/09 06:24:45;;;;;;;20.58;5.05;;;11.40;99.90;;;;;;4177997;28;20060;-88
2022/04/09 06:26:47;;;;;;;16.65;4.63;;;11.50;99.90;;;;;;4179151;28;20049;-88
2022/04/09 06:28:49;;;;;;;11.10;3.63;;;11.60;99.90;;;;;;4161695;28;20111;-89
2022/04/09 06:30:52;;;;;;;11.48;4.20;;;11.80;99.90;;;;;;4185722;28;20033;-89
2022/04/09 06:32:55;;;;;;;10.90;3.42;;;11.90;99.90;;;;;;4186433;28;20044;-89
2022/04/09 06:34:58;;;;;;;16.52;4.25;;;12.00;99.90;;;;;;4181624;28;20116;-89
2022/04/09 06:37:01;;;;;;;12.63;4.25;;;12.00;99.90;;;;;;4193283;28;20032;-90
2022/04/09 06:39:10;;;;;;;7.03;2.83;;;12.00;99.90;;;;;;4178162;28;20087;-88
2022/04/09 06:41:18;;;;;;;11.40;2.83;;;11.90;99.90;;;;;;4193778;28;20044;-89
2022/04/09 06:43:22;;;;;;;13.02;3.63;;;11.80;99.90;;;;;;4194973;28;20036;-89
2022/04/09 06:45:25;;;;;;;9.23;4.93;;;11.90;99.90;;;;;;4182454;28;20420;-90
2022/04/09 06:47:31;;;;;;;8.10;2.97;;;12.00;99.90;;;;;;4174466;28;20056;-91
2022/04/09 06:49:33;;;;;;;16.23;5.25;;;12.20;99.90;;;;;;4177156;28;20541;-89
2022/04/09 06:51:36;;;;;;;16.83;4.80;;;12.10;99.90;;;;;;4184223;28;20080;-89
2022/04/09 06:53:38;;;;;;;14.90;3.95;;;12.20;99.90;;;;;;4186547;28;20032;-89
2022/04/09 06:55:41;;;;;;;7.72;3.45;;;12.30;99.90;;;;;;4196595;28;20574;-86
2022/04/09 06:57:45;;;;;;;14.30;2.97;;;12.30;99.90;;;;;;4195833;28;20037;-85
2022/04/09 06:59:47;;;;;;;9.07;3.50;;;12.20;99.90;;;;;;4179555;28;20132;-85
2022/04/09 07:01:49;;;;;;;13.27;4.35;;;12.00;99.90;;;;;;4178881;28;20165;-85
2022/04/09 07:03:52;;;;;;;12.05;3.40;;;11.80;99.90;;;;;;4181087;28;20570;-85
2022/04/09 07:05:57;;;;;;;8.55;2.97;;;11.80;99.90;;;;;;4181731;28;20036;-85
2022/04/09 07:08:01;;;;;;;10.32;3.63;;;11.90;99.90;;;;;;4196539;28;20067;-85
2022/04/09 07:10:11;;;;;;;10.40;2.80;;;12.00;99.90;;;;;;4196754;28;20024;-85
2022/04/09 07:12:15;;;;;;;15.85;3.15;;;12.10;99.90;;;;;;4188642;28;20108;-85
2022/04/09 07:14:17;;;;;;;14.02;3.75;;;12.00;99.90;;;;;;4173045;28;20080;-85
2022/04/09 07:16:20;;;;;;;16.05;3.72;;;11.90;99.90;;;;;;4165486;28;20076;-85
2022/04/09 07:18:23;;;;;;;10.65;3.72;;;11.80;99.90;;;;;;4181707;28;20043;-85
2022/04/09 07:20:26;;;;;;;14.77;4.30;;;11.80;99.90;;;;;;4179830;28;20119;-86
2022/04/09 07:22:30;;;;;;;19.63;5.13;;;11.90;99.90;;;;;;4179752;28;20040;-86
2022/04/09 07:24:32;;;;;;;12.30;3.85;;;11.90;99.90;;;;;;4181305;28;20413;-86
2022/04/09 07:26:34;;;;;;;17.05;3.85;;;11.90;99.90;;;;;;4165588;28;20426;-86
2022/04/09 07:28:36;;;;;;;15.52;3.97;;;11.80;99.90;;;;;;4157108;28;20072;-86
2022/04/09 07:30:38;;;;;;;16.95;4.85;;;11.80;99.90;;;;;;4173078;28;20045;-86
2022/04/09 07:32:41;;;;;;;;;;;11.90;99.90;;;;;;4174207;28;20033;-85
2022/04/09 07:34:43;;;;;;;15.38;4.00;;;11.80;99.90;;;;;;4147991;28;19967;-86
2022/04/09 07:36:46;;;;;;;16.00;5.90;;;11.80;99.90;;;;;;4148016;28;20096;-85
2022/04/09 07:38:48;;;;;;;15.43;4.85;;;11.80;99.90;;;;;;4163846;28;20084;-85
2022/04/09 07:40:50;;;;;;;17.05;4.30;;;11.80;99.90;;;;;;4161942;28;20065;-85
2022/04/09 07:42:53;;;;;;;11.55;5.82;;;11.80;99.90;;;;;;4145001;28;20812;-85
2022/04/09 07:44:56;;;;;;;19.83;4.43;;;11.70;99.90;;;;;;4170710;28;20045;-85
2022/04/09 07:46:58;;;;;;;15.63;6.18;;;11.60;99.90;;;;;;4173077;28;20428;-85
2022/04/09 07:49:00;;;;;;;10.23;4.25;;;11.70;99.90;;;;;;4144653;28;20042;-85
2022/04/09 07:51:03;;;;;;;18.38;4.43;;;11.80;99.90;;;;;;4186264;28;20069;-85
2022/04/09 07:53:08;;;;;;;12.48;4.07;;;11.80;99.90;;;;;;4178043;28;20045;-86
2022/04/09 07:55:11;;;;;;;18.02;5.68;;;11.90;99.90;;;;;;4161627;28;20715;-86
2022/04/09 07:57:14;;;;;;;13.23;3.63;;;12.00;99.90;;;;;;4162177;28;20552;-85
2022/04/09 07:59:16;;;;;;;8.68;4.65;;;12.00;99.90;;;;;;4161890;28;20038;-86
2022/04/09 08:01:18;;;;;;;17.80;4.47;;;12.10;99.90;;;;;;4144722;28;20052;-85
2022/04/09 08:03:20;;;;;;;11.40;5.07;;;12.10;99.90;;;;;;4162493;28;20046;-86
2022/04/09 08:05:23;;;;;;;11.35;3.65;;;12.10;99.90;;;;;;4143755;28;20045;-86
2022/04/09 08:07:25;;;;;;;14.70;4.15;;;12.10;99.90;;;;;;4154650;28;20532;-85
2022/04/09 08:09:27;;;;;;;9.15;4.55;;;12.20;99.90;;;;;;4163590;28;20039;-86
2022/04/09 08:11:30;;;;;;;14.48;5.07;;;12.30;99.90;;;;;;4173060;28;20095;-85
2022/04/09 08:13:34;;;;;;;11.82;3.08;;;12.30;99.90;;;;;;4159829;28;20038;-85
2022/04/09 08:15:37;;;;;;;13.05;3.90;;;12.40;99.90;;;;;;4173754;28;20091;-85
2022/04/09 08:17:41;;;;;;;14.27;4.60;;;12.50;99.90;;;;;;4140539;28;20038;-85
2022/04/09 08:19:44;;;;;;;12.05;3.97;;;12.60;99.90;;;;;;4149048;28;20034;-86
2022/04/09 08:21:46;;;;;;;10.90;2.72;;;12.50;99.90;;;;;;4152177;28;20069;-85
2022/04/09 08:23:49;;;;;;;7.20;3.30;;;12.60;99.90;;;;;;4170833;28;20034;-85
2022/04/09 08:25:51;;;;;;;13.18;4.25;;;12.60;99.90;;;;;;4174554;28;20080;-85
2022/04/09 08:27:54;;;;;;;11.38;2.95;;;12.60;99.90;;;;;;4183335;28;20050;-86
2022/04/09 08:29:57;;;;;;;12.75;4.30;;;12.50;99.90;;;;;;4183010;28;20059;-86
2022/04/09 08:32:01;;;;;;;8.88;3.53;;;12.50;99.90;;;;;;4181516;28;20049;-86
2022/04/09 08:34:03;;;;;;;10.68;3.90;;;12.60;99.90;;;;;;4182891;28;20037;-86
2022/04/09 08:36:05;;;;;;;7.25;3.88;;;12.60;99.90;;;;;;4186269;28;20086;-86
2022/04/09 08:38:07;;;;;;;8.63;3.85;;;12.60;99.90;;;;;;4172224;28;20049;-85
2022/04/09 08:40:16;;;;;;;10.13;3.00;;;12.70;99.90;;;;;;4182217;28;20044;-86
2022/04/09 08:42:19;;;;;;;6.97;2.85;;;12.80;99.90;;;;;;4188291;28;20094;-85
2022/04/09 08:44:22;;;;;;;14.77;4.90;;;12.80;99.90;;;;;;4173829;28;20057;-86
2022/04/09 08:46:26;;;;;;;8.98;3.45;;;12.90;99.90;;;;;;4208465;28;20051;-85
2022/04/09 08:48:28;;;;;;;14.32;3.30;;;13.00;99.90;;;;;;4191563;28;20102;-85
2022/04/09 08:50:31;;;;;;;9.65;2.92;;;13.20;99.90;;;;;;4178484;28;20141;-86
2022/04/09 08:52:33;;;;;;;;;;;13.20;99.90;;;;;;4190125;28;20087;-86
2022/04/09 08:54:39;;;;;;;7.50;3.37;;;13.20;99.90;;;;;;4192093;28;19942;-85
2022/04/09 08:56:41;;;;;;;5.63;3.80;;;13.30;99.90;;;;;;4183782;28;20037;-85
2022/04/09 08:58:44;;;;;;;13.95;4.32;;;13.40;99.90;;;;;;4180872;28;20410;-85
2022/04/09 09:00:47;;;;;;;;;;;13.40;99.90;;;;;;4189019;28;20803;-86
2022/04/09 09:02:50;;;;;;;7.97;2.67;;;13.50;99.90;;;;;;4185728;28;19920;-85
2022/04/09 09:04:53;;;;;;;6.80;4.03;;;13.50;99.90;;;;;;4194402;28;20033;-85
2022/04/09 09:06:55;;;;;;;13.35;4.32;;;13.60;99.90;;;;;;4187757;28;20134;-85
2022/04/09 09:09:00;;;;;;;3.92;3.53;;;13.60;99.90;;;;;;4190950;28;20043;-85
2022/04/09 09:11:03;;;;;;;10.32;4.00;;;13.70;99.90;;;;;;4161741;28;20129;-85
2022/04/09 09:13:10;;;;;;;6.93;2.35;;;13.70;99.90;;;;;;4193909;28;20477;-86
2022/04/09 09:15:18;;;;;;;6.25;3.22;;;13.70;99.90;;;;;;4185403;28;20045;-85
2022/04/09 09:17:30;;;;;;;13.55;5.03;;;13.80;99.90;;;;;;4190370;28;20598;-85
2022/04/09 09:19:47;;;;;;;8.77;4.15;;;13.90;99.90;;;;;;4188765;28;20044;-86
2022/04/09 09:21:55;;;;;;;7.70;2.97;;;13.90;99.90;;;;;;4189628;28;20044;-86
2022/04/09 09:24:13;;;;;;;7.93;3.33;;;13.90;99.90;;;;;;4176024;28;20052;-86
2022/04/09 09:26:29;;;;;;;8.57;3.40;;;14.00;99.90;;;;;;4176874;28;20448;-85
2022/04/09 09:28:34;;;;;;;9.75;3.88;;;14.10;99.90;;;;;;4192496;28;20135;-86
2022/04/09 09:30:48;;;;;;;7.80;2.15;;;14.10;99.90;;;;;;4192570;28;20195;-86
2022/04/09 09:33:09;;;;;;;6.20;3.28;;;14.10;99.90;;;;;;4180933;28;20053;-86
2022/04/09 09:35:56;;;;;;;9.52;2.95;;;14.10;99.90;;;;;;4179438;28;20083;-86
2022/04/09 09:38:24;;;;;;;12.07;3.40;;;14.10;99.90;;;;;;4189117;28;20036;-86
2022/04/09 09:40:32;;;;;;;10.23;3.35;;;14.10;99.90;;;;;;4192020;28;20067;-86
2022/04/09 09:42:35;;;;;;;8.27;2.58;;;14.10;99.90;;;;;;4182495;28;20087;-86
2022/04/09 09:44:43;;;;;;;7.72;2.20;;;14.10;99.90;;;;;;4194961;28;20484;-86
2022/04/09 09:46:49;;;;;;;6.10;2.55;;;14.10;99.90;;;;;;4195475;28;20040;-86
2022/04/09 09:48:51;;;;;;;6.95;3.20;;;14.00;99.90;;;;;;4193538;28;20409;-85
2022/04/09 09:50:55;;;;;;;10.23;3.47;;;14.10;99.90;;;;;;4171778;28;20593;-85
2022/04/09 09:53:04;;;;;;;6.93;2.55;;;14.20;99.90;;;;;;4168310;28;20043;-85
2022/04/09 09:55:14;;;;;;;6.35;2.63;;;14.30;99.90;;;;;;4173519;28;20071;-86
2022/04/09 09:57:20;;;;;;;4.38;1.83;;;14.30;99.90;;;;;;4175211;28;20036;-86
2022/04/09 09:59:23;;;;;;;5.65;1.42;;;14.30;99.90;;;;;;4187266;28;20048;-86
2022/04/09 10:01:27;;;;;;;2.80;1.73;;;14.40;99.90;;;;;;4173230;28;20041;-86
2022/04/09 10:03:29;;;;;;;6.55;1.33;;;14.30;99.90;;;;;;4188473;28;20032;-86
2022/04/09 10:05:31;;;;;;;4.97;1.30;;;14.30;99.90;;;;;;4197998;28;20048;-86
2022/04/09 10:07:34;;;;;;;4.43;1.95;;;14.30;99.90;;;;;;4187597;28;20060;-86
2022/04/09 10:09:36;;;;;;;6.70;1.65;;;14.30;99.50;;;;;;4191664;28;20071;-86
2022/04/09 10:11:42;;;;;;;4.63;2.20;;;14.40;99.90;;;;;;4163725;28;20128;-86
2022/04/09 10:13:47;;;;;;;5.03;1.85;;;14.70;99.90;;;;;;4173807;28;20704;-86
2022/04/09 10:15:51;;;;;;;7.20;2.25;;;14.90;99.90;;;;;;4180313;28;20029;-85
2022/04/09 10:17:57;;;;;;;4.82;2.78;;;15.10;99.60;;;;;;4188121;28;20037;-85
2022/04/09 10:20:02;;;;;;;2.50;1.42;;;15.10;98.80;;;;;;4192107;28;20045;-85
2022/04/09 10:22:05;;;;;;;8.30;2.55;;;15.10;98.20;;;;;;4193962;28;20470;-85
2022/04/09 10:24:14;;;;;;;6.13;2.53;;;15.10;96.70;;;;;;4187048;28;20862;-85
2022/04/09 10:26:17;;;;;;;5.63;1.40;;;15.20;95.30;;;;;;4189509;28;20050;-85
2022/04/09 10:28:28;;;;;;;;;;;15.30;95.60;;;;;;4177648;28;20036;-85
2022/04/09 10:30:41;;;;;;;5.13;2.40;;;15.60;95.40;;;;;;4176126;28;20007;-85
2022/04/09 10:32:48;;;;;;;3.95;1.92;;;15.80;94.60;;;;;;4185488;28;20133;-86
2022/04/09 10:34:50;;;;;;;3.45;1.48;;;15.90;96.20;;;;;;4188187;28;20037;-86
2022/04/09 10:36:55;;;;;;;5.82;1.83;;;16.00;96.10;;;;;;4194481;28;20545;-86
2022/04/09 10:39:23;;;;;;;1.30;1.20;;;15.90;95.00;;;;;;4188734;28;20400;-85
2022/04/09 10:41:27;;;;;;;3.15;1.20;;;16.20;94.70;;;;;;4183714;28;20496;-85